createdAt,value
2018-06-12T00:00:21.190Z,0
2018-06-12T00:01:23.500Z,0
2018-06-12T00:02:25.550Z,0
2018-06-12T00:03:27.577Z,0
2018-06-12T00:04:29.629Z,0
2018-06-12T00:05:31.958Z,0
2018-06-12T00:06:33.994Z,0
2018-06-12T00:07:36.404Z,0
2018-06-12T00:08:38.446Z,0
2018-06-12T00:09:40.479Z,0
2018-06-12T00:10:42.522Z,0
2018-06-12T00:11:44.944Z,0
2018-06-12T00:12:46.979Z,0
2018-06-12T00:13:49.016Z,0
2018-06-12T00:14:51.344Z,0
2018-06-12T00:15:53.376Z,0
2018-06-12T00:16:55.427Z,0
2018-06-12T00:17:57.466Z,0
2018-06-12T00:18:59.505Z,0
2018-06-12T00:20:01.544Z,0
2018-06-12T00:21:03.888Z,0
2018-06-12T00:22:05.925Z,0
2018-06-12T00:23:07.965Z,0
2018-06-12T00:24:10.007Z,0
2018-06-12T00:25:12.040Z,0
2018-06-12T00:26:14.236Z,0
2018-06-12T00:27:16.563Z,0
2018-06-12T00:28:18.596Z,0
2018-06-12T00:29:20.639Z,0
2018-06-12T00:30:22.683Z,0
2018-06-12T00:31:24.714Z,0
2018-06-12T00:32:26.747Z,0
2018-06-12T00:33:28.788Z,0
2018-06-12T00:34:30.816Z,0
2018-06-12T00:35:32.853Z,0
2018-06-12T00:36:34.891Z,0
2018-06-12T00:37:36.931Z,0
2018-06-12T00:38:38.969Z,0
2018-06-12T00:39:41.673Z,0
2018-06-12T00:40:43.706Z,0
2018-06-12T00:41:45.755Z,0
2018-06-12T00:42:48.076Z,0
2018-06-12T00:43:50.113Z,0
2018-06-12T00:44:52.158Z,0
2018-06-12T00:45:54.202Z,0
2018-06-12T00:46:56.242Z,0
2018-06-12T00:47:58.275Z,0
2018-06-12T00:49:00.703Z,0
2018-06-12T00:50:02.752Z,0
2018-06-12T00:51:04.780Z,0
2018-06-12T00:52:06.823Z,0
2018-06-12T00:53:08.883Z,0
2018-06-12T00:54:11.228Z,0
2018-06-12T00:55:13.273Z,0
2018-06-12T00:56:15.301Z,0
2018-06-12T00:57:17.356Z,0
2018-06-12T00:58:20.350Z,0
2018-06-12T00:59:22.379Z,0
2018-06-12T01:00:24.424Z,0
2018-06-12T01:01:26.457Z,0
2018-06-12T01:02:28.498Z,0
2018-06-12T01:03:30.529Z,0
2018-06-12T01:04:32.573Z,0
2018-06-12T01:05:34.623Z,0
2018-06-12T01:06:36.668Z,0
2018-06-12T01:07:38.715Z,0
2018-06-12T01:08:40.740Z,0
2018-06-12T01:09:42.784Z,0
2018-06-12T01:10:45.107Z,0
2018-06-12T01:11:47.142Z,0
2018-06-12T01:12:49.185Z,0
2018-06-12T01:13:51.229Z,0
2018-06-12T01:14:53.267Z,0
2018-06-12T01:15:55.680Z,0
2018-06-12T01:16:57.709Z,0
2018-06-12T01:17:59.758Z,0
2018-06-12T01:19:01.796Z,0
2018-06-12T01:20:03.824Z,0
2018-06-12T01:21:05.863Z,0
2018-06-12T01:22:07.899Z,0
2018-06-12T01:23:10.311Z,0
2018-06-12T01:24:12.355Z,0
2018-06-12T01:25:14.394Z,0
2018-06-12T01:26:18.045Z,0
2018-06-12T01:27:20.177Z,0
2018-06-12T01:28:22.207Z,0
2018-06-12T01:29:24.642Z,0
2018-06-12T01:30:26.670Z,0
2018-06-12T01:31:28.707Z,0
2018-06-12T01:32:31.041Z,0
2018-06-12T01:33:33.078Z,0
2018-06-12T01:34:35.110Z,0
2018-06-12T01:35:37.142Z,0
2018-06-12T01:36:39.181Z,0
2018-06-12T01:37:41.518Z,0
2018-06-12T01:38:43.927Z,0
2018-06-12T01:39:45.963Z,0
2018-06-12T01:40:48.003Z,0
2018-06-12T01:41:50.058Z,0
2018-06-12T01:42:52.374Z,0
2018-06-12T01:43:54.990Z,0
2018-06-12T01:44:57.028Z,0
2018-06-12T01:45:59.068Z,0
2018-06-12T01:47:01.387Z,0
2018-06-12T01:48:03.712Z,0
2018-06-12T01:49:06.434Z,0
2018-06-12T01:50:08.761Z,0
2018-06-12T01:51:10.790Z,0
2018-06-12T01:52:12.832Z,0
2018-06-12T01:53:14.874Z,0
2018-06-12T01:54:16.907Z,0
2018-06-12T01:55:19.233Z,0
2018-06-12T01:56:21.264Z,0
2018-06-12T01:57:23.633Z,0
2018-06-12T01:58:25.625Z,4
2018-06-12T01:59:27.677Z,4
2018-06-12T02:00:29.704Z,4
2018-06-12T02:01:31.744Z,4
2018-06-12T02:02:34.170Z,0
2018-06-12T02:03:36.191Z,0
2018-06-12T02:04:38.225Z,4
2018-06-12T02:05:40.266Z,4
2018-06-12T02:06:42.308Z,0
2018-06-12T02:07:44.350Z,4
2018-06-12T02:08:46.383Z,4
2018-06-12T02:14:35.532Z,12
2018-06-12T02:15:37.566Z,12
2018-06-12T02:16:39.613Z,8
2018-06-12T02:17:41.648Z,12
2018-06-12T02:18:44.076Z,12
2018-06-12T02:19:46.112Z,16
2018-06-12T02:20:48.150Z,16
2018-06-12T02:21:50.486Z,20
2018-06-12T02:22:52.518Z,20
2018-06-12T02:23:54.549Z,20
2018-06-12T02:24:56.876Z,24
2018-06-12T02:25:59.206Z,28
2018-06-12T02:27:01.265Z,28
2018-06-12T02:28:03.289Z,36
2018-06-12T02:29:05.331Z,36
2018-06-12T02:30:07.364Z,40
2018-06-12T02:31:10.080Z,44
2018-06-12T02:32:12.121Z,48
2018-06-12T02:33:14.444Z,56
2018-06-12T02:34:16.762Z,56
2018-06-12T02:35:19.085Z,64
2018-06-12T02:36:21.121Z,68
2018-06-12T02:37:23.452Z,76
2018-06-12T02:38:25.477Z,84
2018-06-12T02:39:27.903Z,92
2018-06-12T02:40:29.952Z,100
2018-06-12T02:41:31.992Z,104
2018-06-12T02:42:34.992Z,112
2018-06-12T02:43:37.348Z,124
2018-06-12T02:44:39.758Z,136
2018-06-12T02:45:41.999Z,148
2018-06-12T02:46:44.333Z,160
2018-06-12T02:47:46.364Z,168
2018-06-12T02:48:48.409Z,180
2018-06-12T02:49:50.438Z,196
2018-06-12T02:50:52.477Z,216
2018-06-12T02:51:54.813Z,228
2018-06-12T02:52:56.849Z,236
2018-06-12T02:53:59.181Z,248
2018-06-12T02:55:01.509Z,268
2018-06-12T02:56:03.830Z,284
2018-06-12T02:57:05.879Z,292
2018-06-12T02:58:08.223Z,304
2018-06-12T02:59:10.535Z,316
2018-06-12T03:00:13.171Z,328
2018-06-12T03:01:15.221Z,352
2018-06-12T03:02:17.256Z,368
2018-06-12T03:03:19.881Z,392
2018-06-12T03:04:22.213Z,416
2018-06-12T03:05:24.245Z,448
2018-06-12T03:06:26.583Z,480
2018-06-12T03:07:28.989Z,508
2018-06-12T03:08:31.334Z,536
2018-06-12T03:09:33.956Z,564
2018-06-12T03:10:35.996Z,576
2018-06-12T03:11:38.631Z,588
2018-06-12T03:12:40.667Z,604
2018-06-12T03:13:43.089Z,624
2018-06-12T03:14:45.134Z,644
2018-06-12T03:15:47.158Z,656
2018-06-12T03:16:49.198Z,676
2018-06-12T03:17:51.518Z,712
2018-06-12T03:18:53.555Z,760
2018-06-12T03:19:55.597Z,788
2018-06-12T03:20:57.936Z,820
2018-06-12T03:22:00.372Z,888
2018-06-12T03:23:02.701Z,956
2018-06-12T03:24:04.736Z,984
2018-06-12T03:25:06.776Z,992
2018-06-12T03:26:08.808Z,1016
2018-06-12T03:27:11.244Z,1056
2018-06-12T03:28:13.283Z,1088
2018-06-12T03:29:15.317Z,1116
2018-06-12T03:30:17.354Z,1148
2018-06-12T03:31:19.383Z,1156
2018-06-12T03:32:21.821Z,1144
2018-06-12T03:33:24.243Z,1152
2018-06-12T03:34:26.278Z,1188
2018-06-12T03:35:28.321Z,1224
2018-06-12T03:36:30.354Z,1224
2018-06-12T03:37:32.394Z,1256
2018-06-12T03:38:34.437Z,1312
2018-06-12T03:39:36.471Z,1324
2018-06-12T03:40:38.797Z,1376
2018-06-12T03:41:40.846Z,1460
2018-06-12T03:42:42.876Z,1636
2018-06-12T03:43:44.917Z,1744
2018-06-12T03:44:46.953Z,1712
2018-06-12T03:45:49.005Z,1760
2018-06-12T03:46:51.604Z,1780
2018-06-12T03:47:53.636Z,1776
2018-06-12T03:48:55.682Z,1800
2018-06-12T03:49:57.720Z,1792
2018-06-12T03:51:00.056Z,1804
2018-06-12T03:52:02.779Z,1828
2018-06-12T03:53:04.824Z,1860
2018-06-12T03:54:06.857Z,1900
2018-06-12T03:55:08.900Z,1976
2018-06-12T03:56:10.941Z,2100
2018-06-12T03:57:12.980Z,2196
2018-06-12T03:58:15.016Z,2192
2018-06-12T03:59:18.114Z,2132
2018-06-12T04:00:20.150Z,2072
2018-06-12T04:01:22.473Z,2076
2018-06-12T04:02:24.897Z,2096
2018-06-12T04:03:26.919Z,2140
2018-06-12T04:04:28.959Z,2164
2018-06-12T04:05:31.284Z,2220
2018-06-12T04:06:33.316Z,2272
2018-06-12T04:07:35.365Z,2260
2018-06-12T04:08:38.035Z,2220
2018-06-12T04:09:40.077Z,2212
2018-06-12T04:10:42.107Z,2264
2018-06-12T04:11:44.144Z,2324
2018-06-12T04:12:46.191Z,2376
2018-06-12T04:13:48.215Z,2412
2018-06-12T04:14:50.326Z,2428
2018-06-12T04:15:53.137Z,2468
2018-06-12T04:16:55.448Z,2464
2018-06-12T04:17:57.784Z,2472
2018-06-12T04:18:59.818Z,2564
2018-06-12T04:20:01.857Z,2704
2018-06-12T04:21:04.184Z,2772
2018-06-12T04:22:06.201Z,2780
2018-06-12T04:23:08.256Z,2824
2018-06-12T04:24:10.668Z,2836
2018-06-12T04:25:12.705Z,2852
2018-06-12T04:26:14.744Z,2972
2018-06-12T04:27:17.167Z,3072
2018-06-12T04:28:19.795Z,3100
2018-06-12T04:29:21.838Z,3160
2018-06-12T04:30:23.874Z,3232
2018-06-12T04:31:25.920Z,3384
2018-06-12T04:32:27.946Z,3532
2018-06-12T04:33:29.991Z,3660
2018-06-12T04:34:32.030Z,3720
2018-06-12T04:35:34.066Z,3732
2018-06-12T04:36:36.374Z,3704
2018-06-12T04:37:38.419Z,3684
2018-06-12T04:38:40.453Z,3784
2018-06-12T04:39:42.499Z,3960
2018-06-12T04:40:44.534Z,4080
2018-06-12T04:41:46.961Z,4084
2018-06-12T04:42:48.999Z,4060
2018-06-12T04:43:51.454Z,4152
2018-06-12T04:44:53.442Z,4280
2018-06-12T04:45:55.495Z,4380
2018-06-12T04:46:57.532Z,4504
2018-06-12T04:47:59.573Z,4656
2018-06-12T04:49:01.891Z,4720
2018-06-12T04:50:04.207Z,4608
2018-06-12T04:51:06.249Z,4560
2018-06-12T04:52:08.280Z,4656
2018-06-12T04:53:10.316Z,4800
2018-06-12T04:54:12.354Z,4908
2018-06-12T04:55:14.699Z,5132
2018-06-12T04:56:16.726Z,5444
2018-06-12T04:57:18.759Z,5728
2018-06-12T04:58:21.104Z,5820
2018-06-12T04:59:23.713Z,5848
2018-06-12T05:00:25.748Z,5908
2018-06-12T05:01:27.780Z,5788
2018-06-12T05:02:29.821Z,5776
2018-06-12T05:03:31.860Z,5884
2018-06-12T05:04:34.271Z,5916
2018-06-12T05:05:36.618Z,5940
2018-06-12T05:06:38.660Z,5968
2018-06-12T05:07:40.700Z,6052
2018-06-12T05:08:42.735Z,6156
2018-06-12T05:09:44.778Z,6336
2018-06-12T05:10:46.820Z,6416
2018-06-12T05:11:48.850Z,6320
2018-06-12T05:12:50.887Z,6340
2018-06-12T05:13:52.929Z,6440
2018-06-12T05:14:55.349Z,6564
2018-06-12T05:15:57.390Z,6908
2018-06-12T05:16:59.424Z,7040
2018-06-12T05:18:02.159Z,6996
2018-06-12T05:19:04.201Z,7164
2018-06-12T05:20:06.522Z,7304
2018-06-12T05:21:09.234Z,7240
2018-06-12T05:22:11.264Z,7320
2018-06-12T05:23:13.303Z,7332
2018-06-12T05:24:15.342Z,7340
2018-06-12T05:25:17.767Z,7252
2018-06-12T05:26:19.821Z,7344
2018-06-12T05:27:21.860Z,7640
2018-06-12T05:28:23.892Z,7992
2018-06-12T05:29:25.937Z,8144
2018-06-12T05:30:28.659Z,8236
2018-06-12T05:31:30.985Z,8256
2018-06-12T05:32:33.014Z,8276
2018-06-12T05:33:35.061Z,8424
2018-06-12T05:34:37.099Z,8668
2018-06-12T05:35:39.149Z,9024
2018-06-12T05:36:41.191Z,9184
2018-06-12T05:37:43.216Z,9116
2018-06-12T05:38:45.258Z,9456
2018-06-12T05:39:47.297Z,9976
2018-06-12T05:40:49.329Z,10124
2018-06-12T05:41:51.374Z,10144
2018-06-12T05:42:54.099Z,9888
2018-06-12T05:43:56.134Z,9844
2018-06-12T05:44:58.164Z,10116
2018-06-12T05:46:00.197Z,10320
2018-06-12T05:47:02.556Z,10156
2018-06-12T05:48:04.983Z,10040
2018-06-12T05:49:07.399Z,10116
2018-06-12T05:50:09.727Z,10500
2018-06-12T05:51:12.056Z,10980
2018-06-12T05:52:14.096Z,10832
2018-06-12T05:53:16.428Z,10576
2018-06-12T05:54:18.469Z,10792
2018-06-12T05:55:20.510Z,11208
2018-06-12T05:56:22.540Z,11236
2018-06-12T05:57:24.574Z,11284
2018-06-12T05:58:26.615Z,11436
2018-06-12T05:59:28.652Z,11448
2018-06-12T06:00:30.683Z,11184
2018-06-12T06:01:32.732Z,11184
2018-06-12T06:02:34.763Z,11052
2018-06-12T06:03:36.802Z,11024
2018-06-12T06:04:38.842Z,11192
2018-06-12T06:05:41.160Z,11228
2018-06-12T06:06:43.212Z,11380
2018-06-12T06:07:45.530Z,11600
2018-06-12T06:08:47.555Z,11272
2018-06-12T06:09:49.588Z,10948
2018-06-12T06:10:51.619Z,11060
2018-06-12T06:12:00.250Z,11500
2018-06-12T06:13:02.298Z,11492
2018-06-12T06:14:04.736Z,11340
2018-06-12T06:15:06.783Z,11684
2018-06-12T06:16:09.106Z,12176
2018-06-12T06:17:11.439Z,12720
2018-06-12T06:18:13.495Z,11872
2018-06-12T06:19:15.535Z,10624
2018-06-12T06:20:17.570Z,9912
2018-06-12T06:21:19.646Z,9900
2018-06-12T06:22:21.693Z,10060
2018-06-12T06:23:23.725Z,10168
2018-06-12T06:24:25.761Z,10240
2018-06-12T06:25:28.085Z,10516
2018-06-12T06:26:30.182Z,11156
2018-06-12T06:27:32.222Z,11600
2018-06-12T06:28:34.554Z,11512
2018-06-12T06:29:36.880Z,11552
2018-06-12T06:30:38.916Z,11560
2018-06-12T06:31:40.964Z,11476
2018-06-12T06:32:42.986Z,11516
2018-06-12T06:33:45.031Z,11768
2018-06-12T06:34:47.074Z,11824
2018-06-12T06:35:49.106Z,11720
2018-06-12T06:36:51.151Z,11616
2018-06-12T06:37:53.186Z,11784
2018-06-12T06:38:55.232Z,12224
2018-06-12T06:39:57.650Z,12604
2018-06-12T06:40:59.695Z,12868
2018-06-12T06:42:01.742Z,12772
2018-06-12T06:43:03.788Z,12480
2018-06-12T06:44:06.151Z,12228
2018-06-12T06:45:08.188Z,12268
2018-06-12T06:46:10.234Z,12232
2018-06-12T06:47:12.286Z,12024
2018-06-12T06:48:14.324Z,11584
2018-06-12T06:49:16.353Z,11224
2018-06-12T06:50:18.395Z,10840
2018-06-12T06:51:20.724Z,10424
2018-06-12T06:52:23.056Z,10188
2018-06-12T06:53:25.094Z,10284
2018-06-12T06:54:27.523Z,10500
2018-06-12T06:55:29.561Z,10816
2018-06-12T06:56:31.591Z,11336
2018-06-12T06:57:33.911Z,11740
2018-06-12T06:58:35.969Z,12208
2018-06-12T06:59:38.009Z,12852
2018-06-12T07:00:40.059Z,13300
2018-06-12T07:01:42.102Z,13220
2018-06-12T07:02:44.145Z,13284
2018-06-12T07:03:46.466Z,13652
2018-06-12T07:04:48.491Z,13992
2018-06-12T07:05:50.488Z,13692
2018-06-12T07:06:52.529Z,12988
2018-06-12T07:07:54.871Z,12432
2018-06-12T07:08:57.298Z,12116
2018-06-12T07:09:59.921Z,11928
2018-06-12T07:11:01.994Z,11728
2018-06-12T07:12:04.041Z,11548
2018-06-12T07:13:06.118Z,11456
2018-06-12T07:14:08.166Z,11500
2018-06-12T07:15:10.218Z,11688
2018-06-12T07:16:12.280Z,11892
2018-06-12T07:17:14.353Z,12380
2018-06-12T07:18:16.406Z,13056
2018-06-12T07:19:18.487Z,13692
2018-06-12T07:20:20.528Z,13972
2018-06-12T07:21:22.576Z,13752
2018-06-12T07:22:24.990Z,13512
2018-06-12T07:23:27.019Z,13632
2018-06-12T07:24:29.483Z,13988
2018-06-12T07:25:31.522Z,14268
2018-06-12T07:26:34.015Z,14440
2018-06-12T07:27:36.055Z,14280
2018-06-12T07:28:38.162Z,14024
2018-06-12T07:29:40.241Z,13644
2018-06-12T07:30:42.405Z,13496
2018-06-12T07:31:44.441Z,13612
2018-06-12T07:32:46.883Z,14072
2018-06-12T07:33:48.917Z,14856
2018-06-12T07:34:51.342Z,15632
2018-06-12T07:35:53.390Z,15896
2018-06-12T07:36:55.438Z,15464
2018-06-12T07:37:57.489Z,14948
2018-06-12T07:38:59.511Z,14544
2018-06-12T07:40:01.568Z,14292
2018-06-12T07:41:03.994Z,14260
2018-06-12T07:42:06.244Z,14388
2018-06-12T07:43:08.296Z,14632
2018-06-12T07:44:10.339Z,14860
2018-06-12T07:45:12.670Z,15028
2018-06-12T07:46:14.713Z,15428
2018-06-12T07:47:16.865Z,16000
2018-06-12T07:48:19.188Z,16552
2018-06-12T07:49:21.214Z,17216
2018-06-12T07:50:23.256Z,17800
2018-06-12T07:51:25.309Z,18464
2018-06-12T07:52:27.350Z,18592
2018-06-12T07:53:29.431Z,18560
2018-06-12T07:54:31.556Z,18816
2018-06-12T07:55:33.621Z,19136
2018-06-12T07:56:35.676Z,19424
2018-06-12T07:57:43.959Z,19648
2018-06-12T07:58:46.009Z,19360
2018-06-12T07:59:48.436Z,18056
2018-06-12T08:00:50.535Z,17196
2018-06-12T08:01:52.818Z,17088
2018-06-12T08:02:55.249Z,17616
2018-06-12T08:03:57.286Z,18152
2018-06-12T08:04:59.742Z,18720
2018-06-12T08:06:01.827Z,19424
2018-06-12T08:07:04.252Z,19840
2018-06-12T08:08:06.698Z,19584
2018-06-12T08:09:08.738Z,19136
2018-06-12T08:10:10.989Z,18848
2018-06-12T08:11:13.029Z,19104
2018-06-12T08:12:15.353Z,19296
2018-06-12T08:13:17.416Z,19552
2018-06-12T08:14:19.453Z,19648
2018-06-12T08:15:21.507Z,19488
2018-06-12T08:16:23.552Z,18720
2018-06-12T08:17:25.590Z,17336
2018-06-12T08:18:27.636Z,16560
2018-06-12T08:19:29.668Z,15984
2018-06-12T08:20:31.726Z,15432
2018-06-12T08:21:33.772Z,15148
2018-06-12T08:22:35.809Z,15040
2018-06-12T08:23:37.864Z,15096
2018-06-12T08:24:39.894Z,15232
2018-06-12T08:25:42.047Z,15220
2018-06-12T08:26:44.520Z,15300
2018-06-12T08:27:47.185Z,14844
2018-06-12T08:28:49.238Z,14140
2018-06-12T08:29:51.679Z,13608
2018-06-12T08:30:53.627Z,13344
2018-06-12T08:31:55.680Z,13336
2018-06-12T08:32:57.720Z,13312
2018-06-12T08:33:59.767Z,13164
2018-06-12T08:35:01.814Z,12964
2018-06-12T08:36:03.855Z,12796
2018-06-12T08:37:05.907Z,12836
2018-06-12T08:38:07.953Z,13012
2018-06-12T08:39:09.994Z,13500
2018-06-12T08:40:12.037Z,13904
2018-06-12T08:41:14.074Z,14416
2018-06-12T08:42:16.119Z,15012
2018-06-12T08:43:18.169Z,15552
2018-06-12T08:44:20.203Z,15924
2018-06-12T08:45:22.259Z,15976
2018-06-12T08:46:24.314Z,15720
2018-06-12T08:47:27.092Z,15568
2018-06-12T08:48:29.138Z,15628
2018-06-12T08:49:31.176Z,15632
2018-06-12T08:50:33.529Z,15648
2018-06-12T08:51:35.565Z,15628
2018-06-12T08:52:37.609Z,15280
2018-06-12T08:53:39.656Z,14888
2018-06-12T08:54:41.685Z,14772
2018-06-12T08:55:44.025Z,15024
2018-06-12T08:56:46.074Z,15472
2018-06-12T08:57:48.403Z,16052
2018-06-12T08:58:50.447Z,16732
2018-06-12T08:59:52.482Z,17112
2018-06-12T09:00:54.514Z,17368
2018-06-12T09:01:56.556Z,17584
2018-06-12T09:02:58.593Z,17852
2018-06-12T09:04:00.645Z,18432
2018-06-12T09:05:03.086Z,18008
2018-06-12T09:06:05.124Z,17652
2018-06-12T09:07:07.162Z,17352
2018-06-12T09:08:09.195Z,17244
2018-06-12T09:09:11.545Z,17180
2018-06-12T09:10:13.586Z,16904
2018-06-12T09:11:16.308Z,16524
2018-06-12T09:12:18.642Z,16228
2018-06-12T09:13:20.960Z,16404
2018-06-12T09:14:23.004Z,17144
2018-06-12T09:15:25.367Z,17844
2018-06-12T09:16:27.402Z,17672
2018-06-12T09:17:29.441Z,17568
2018-06-12T09:18:31.494Z,18304
2018-06-12T09:19:33.545Z,18816
2018-06-12T09:20:35.578Z,18816
2018-06-12T09:21:37.618Z,18944
2018-06-12T09:22:39.946Z,19584
2018-06-12T09:23:41.974Z,20608
2018-06-12T09:24:44.023Z,21792
2018-06-12T09:25:46.450Z,22528
2018-06-12T09:26:48.504Z,23264
2018-06-12T09:27:50.821Z,24672
2018-06-12T09:28:53.259Z,26176
2018-06-12T09:29:55.297Z,27488
2018-06-12T09:30:57.342Z,28256
2018-06-12T09:31:59.775Z,29056
2018-06-12T09:33:01.821Z,23392
2018-06-12T09:34:03.865Z,22208
2018-06-12T09:35:05.909Z,22336
2018-06-12T09:36:07.940Z,23200
2018-06-12T09:37:10.000Z,24768
2018-06-12T09:38:12.041Z,25696
2018-06-12T09:39:14.364Z,25824
2018-06-12T09:40:16.415Z,26336
2018-06-12T09:41:18.461Z,27008
2018-06-12T09:42:20.510Z,28096
2018-06-12T09:43:22.558Z,28832
2018-06-12T09:44:24.595Z,29056
2018-06-12T09:45:26.656Z,28352
2018-06-12T09:46:29.074Z,26144
2018-06-12T09:47:31.126Z,24640
2018-06-12T09:48:33.177Z,23648
2018-06-12T09:49:35.634Z,23488
2018-06-12T09:50:37.963Z,23296
2018-06-12T09:51:39.998Z,22528
2018-06-12T09:52:42.048Z,21440
2018-06-12T09:53:44.090Z,22016
2018-06-12T09:54:46.432Z,23424
2018-06-12T09:55:48.464Z,25056
2018-06-12T09:56:50.512Z,27104
2018-06-12T09:57:52.550Z,28448
2018-06-12T09:58:54.596Z,27904
2018-06-12T09:59:56.629Z,27904
2018-06-12T10:00:58.993Z,28192
2018-06-12T10:02:01.037Z,29984
2018-06-12T10:03:03.086Z,31392
2018-06-12T10:04:05.141Z,30976
2018-06-12T10:05:07.183Z,27520
2018-06-12T10:06:09.521Z,27008
2018-06-12T10:07:11.571Z,28416
2018-06-12T10:08:13.607Z,31808
2018-06-12T10:09:15.935Z,34848
2018-06-12T10:10:17.985Z,34400
2018-06-12T10:11:20.035Z,32064
2018-06-12T10:12:22.066Z,28960
2018-06-12T10:13:24.112Z,27200
2018-06-12T10:14:26.151Z,25760
2018-06-12T10:15:28.484Z,23904
2018-06-12T10:16:30.527Z,22592
2018-06-12T10:17:32.581Z,22240
2018-06-12T10:18:34.624Z,22336
2018-06-12T10:19:36.666Z,22240
2018-06-12T10:20:38.699Z,22624
2018-06-12T10:21:40.744Z,23904
2018-06-12T10:22:42.785Z,25920
2018-06-12T10:23:45.124Z,28096
2018-06-12T10:24:47.176Z,29440
2018-06-12T10:25:49.220Z,29536
2018-06-12T10:26:51.250Z,28192
2018-06-12T10:27:53.292Z,27648
2018-06-12T10:28:55.344Z,27360
2018-06-12T10:29:57.387Z,27104
2018-06-12T10:31:00.114Z,26816
2018-06-12T10:32:02.156Z,27136
2018-06-12T10:33:04.202Z,28032
2018-06-12T10:34:06.632Z,29024
2018-06-12T10:35:08.663Z,30464
2018-06-12T10:36:11.014Z,32992
2018-06-12T10:37:13.134Z,32736
2018-06-12T10:38:15.104Z,31776
2018-06-12T10:39:17.160Z,33504
2018-06-12T10:40:19.201Z,36384
2018-06-12T10:41:21.243Z,41248
2018-06-12T10:42:23.586Z,52512
2018-06-12T10:43:25.626Z,48160
2018-06-12T10:44:27.678Z,47776
2018-06-12T10:45:29.719Z,47968
2018-06-12T10:46:31.762Z,39392
2018-06-12T10:47:33.808Z,37504
2018-06-12T10:48:35.842Z,33024
2018-06-12T10:49:37.887Z,32352
2018-06-12T10:50:40.618Z,33280
2018-06-12T10:51:42.644Z,37408
2018-06-12T10:52:44.706Z,45696
2018-06-12T10:53:47.027Z,74208
2018-06-12T10:54:49.073Z,62592
2018-06-12T10:55:51.123Z,49760
2018-06-12T10:56:53.171Z,47136
2018-06-12T10:57:55.215Z,47808
2018-06-12T10:58:57.266Z,39552
2018-06-12T10:59:59.297Z,36384
2018-06-12T11:01:01.674Z,33728
2018-06-12T11:02:03.995Z,32192
2018-06-12T11:03:06.040Z,31840
2018-06-12T11:04:08.080Z,31232
2018-06-12T11:05:10.130Z,31008
2018-06-12T11:06:12.178Z,31072
2018-06-12T11:07:14.220Z,30912
2018-06-12T11:08:16.250Z,30912
2018-06-12T11:09:18.255Z,38528
2018-06-12T11:10:20.261Z,28864
2018-06-12T11:11:22.279Z,28736
2018-06-12T11:12:24.687Z,28800
2018-06-12T11:13:26.688Z,29280
2018-06-12T11:14:28.999Z,28288
2018-06-12T11:15:31.032Z,27872
2018-06-12T11:16:33.040Z,28192
2018-06-12T11:17:35.430Z,28608
2018-06-12T11:18:37.834Z,28896
2018-06-12T11:19:39.833Z,29408
2018-06-12T11:20:42.196Z,29824
2018-06-12T11:21:44.602Z,31424
2018-06-12T11:22:46.692Z,33152
2018-06-12T11:23:48.981Z,34592
2018-06-12T11:24:51.802Z,37024
2018-06-12T11:25:53.804Z,40096
2018-06-12T11:26:56.396Z,43168
2018-06-12T11:27:58.438Z,45728
2018-06-12T11:29:00.443Z,52320
2018-06-12T11:30:02.495Z,45216
2018-06-12T11:31:04.511Z,37888
2018-06-12T11:32:06.607Z,33696
2018-06-12T11:33:08.651Z,30720
2018-06-12T11:34:10.640Z,28672
2018-06-12T11:35:12.704Z,27424
2018-06-12T11:36:14.714Z,26304
2018-06-12T11:37:16.729Z,25280
2018-06-12T11:38:18.726Z,25088
2018-06-12T11:39:20.745Z,24960
2018-06-12T11:40:22.733Z,25120
2018-06-12T11:41:24.735Z,25440
2018-06-12T11:42:26.736Z,24928
2018-06-12T11:43:29.318Z,23872
2018-06-12T11:44:31.316Z,23808
2018-06-12T11:45:33.327Z,24640
2018-06-12T11:46:35.480Z,26048
2018-06-12T11:47:37.775Z,28384
2018-06-12T11:48:39.768Z,31104
2018-06-12T11:49:41.777Z,33760
2018-06-12T11:50:44.060Z,56512
2018-06-12T11:51:46.896Z,29184
2018-06-12T11:52:48.896Z,26176
2018-06-12T11:53:50.896Z,24896
2018-06-12T11:54:53.187Z,24448
2018-06-12T11:55:55.192Z,24352
2018-06-12T11:56:57.567Z,24832
2018-06-12T11:57:59.617Z,25632
2018-06-12T11:59:01.617Z,26208
2018-06-12T12:00:03.619Z,26688
2018-06-12T12:01:05.928Z,26880
2018-06-12T12:02:08.199Z,26848
2018-06-12T12:03:10.212Z,26816
2018-06-12T12:04:12.195Z,27040
2018-06-12T12:05:14.194Z,28064
2018-06-12T12:06:16.257Z,29696
2018-06-12T12:07:18.278Z,31744
2018-06-12T12:08:20.285Z,33728
2018-06-12T12:09:22.279Z,36512
2018-06-12T12:10:24.274Z,36608
2018-06-12T12:11:26.855Z,33760
2018-06-12T12:12:28.866Z,32576
2018-06-12T12:13:31.032Z,30752
2018-06-12T12:14:33.036Z,29568
2018-06-12T12:15:35.021Z,28928
2018-06-12T12:16:37.033Z,27424
2018-06-12T12:17:39.702Z,25984
2018-06-12T12:18:41.985Z,25312
2018-06-12T12:19:43.995Z,24992
2018-06-12T12:20:45.995Z,24608
2018-06-12T12:21:48.007Z,24256
2018-06-12T12:22:50.000Z,23552
2018-06-12T12:23:51.997Z,22016
2018-06-12T12:24:54.294Z,20448
2018-06-12T12:25:56.298Z,19840
2018-06-12T12:26:58.305Z,19520
2018-06-12T12:28:00.300Z,19392
2018-06-12T12:29:02.301Z,19424
2018-06-12T12:30:04.317Z,19872
2018-06-12T12:31:06.313Z,20736
2018-06-12T12:32:08.307Z,21856
2018-06-12T12:33:10.309Z,23168
2018-06-12T12:34:12.317Z,24416
2018-06-12T12:35:14.322Z,26112
2018-06-12T12:36:16.322Z,28608
2018-06-12T12:37:18.707Z,28640
2018-06-12T12:38:20.712Z,27168
2018-06-12T12:39:22.701Z,25568
2018-06-12T12:40:24.706Z,23872
2018-06-12T12:41:26.709Z,21888
2018-06-12T12:42:28.996Z,21344
2018-06-12T12:43:31.287Z,22336
2018-06-12T12:44:33.274Z,24160
2018-06-12T12:45:35.668Z,26080
2018-06-12T12:46:37.666Z,26720
2018-06-12T12:47:39.659Z,27680
2018-06-12T12:48:41.672Z,28928
2018-06-12T12:49:43.674Z,31520
2018-06-12T12:50:45.674Z,29792
2018-06-12T12:51:47.676Z,28800
2018-06-12T12:52:49.687Z,28960
2018-06-12T12:53:51.730Z,29952
2018-06-12T12:54:53.778Z,32000
2018-06-12T12:55:55.812Z,35616
2018-06-12T12:56:58.151Z,47136
2018-06-12T12:58:00.213Z,49216
2018-06-12T12:59:02.265Z,44448
2018-06-12T13:00:04.344Z,39744
2018-06-12T13:01:06.394Z,45248
2018-06-12T13:02:08.636Z,39104
2018-06-12T13:03:11.084Z,35808
2018-06-12T13:04:13.165Z,30336
2018-06-12T13:05:15.646Z,28640
2018-06-12T13:06:17.732Z,28480
2018-06-12T13:07:19.776Z,29088
2018-06-12T13:08:21.842Z,30944
2018-06-12T13:09:24.211Z,29696
2018-06-12T13:10:26.555Z,28608
2018-06-12T13:11:28.661Z,40512
2018-06-12T13:12:30.718Z,25568
2018-06-12T13:13:32.756Z,24416
2018-06-12T13:14:34.823Z,23776
2018-06-12T13:15:36.873Z,23040
2018-06-12T13:16:38.912Z,22464
2018-06-12T13:17:40.957Z,22080
2018-06-12T13:18:42.988Z,22240
2018-06-12T13:19:45.055Z,22944
2018-06-12T13:20:47.184Z,23264
2018-06-12T13:21:49.236Z,23040
2018-06-12T13:22:51.284Z,22880
2018-06-12T13:23:53.330Z,22912
2018-06-12T13:24:55.374Z,24160
2018-06-12T13:25:58.088Z,25600
2018-06-12T13:27:00.169Z,27616
2018-06-12T13:28:02.532Z,28416
2018-06-12T13:29:04.891Z,29664
2018-06-12T13:30:06.941Z,29824
2018-06-12T13:31:09.060Z,30016
2018-06-12T13:32:11.129Z,28672
2018-06-12T13:33:13.360Z,24640
2018-06-12T13:34:15.409Z,21344
2018-06-12T13:35:17.455Z,19104
2018-06-12T13:36:19.500Z,17260
2018-06-12T13:37:21.543Z,16196
2018-06-12T13:38:23.595Z,15596
2018-06-12T13:39:25.634Z,15416
2018-06-12T13:40:27.679Z,15636
2018-06-12T13:41:30.015Z,16112
2018-06-12T13:42:32.060Z,16736
2018-06-12T13:43:34.106Z,17420
2018-06-12T13:44:36.161Z,18208
2018-06-12T13:45:38.200Z,18688
2018-06-12T13:46:40.545Z,18400
2018-06-12T13:47:42.592Z,17452
2018-06-12T13:48:44.633Z,16880
2018-06-12T13:49:47.071Z,16928
2018-06-12T13:50:49.112Z,17940
2018-06-12T13:51:51.553Z,19264